Time;durP1;ratioP1;P1;durP2;ratioP2;P2;SDS_P1;SDS_P2;PMS_P1;PMS_P2;Temp;Humidity;BMP_temperature;BMP_pressure;BME280_temperature;BME280_humidity;BME280_pressure;Samples;Min_cycle;Max_cycle;Signal;HPM_P1;HPM_P2
2020/12/04 00:00:35;;;;;;;14.52;7.62;;;;;;;-2.45;88.98;102333.94;2583641;55;20125;-72
2020/12/04 00:03:03;;;;;;;10.68;6.80;;;;;;;-2.40;88.38;102333.09;2583721;55;20610;-72
2020/12/04 00:05:31;;;;;;;14.98;8.05;;;;;;;-2.39;88.86;102333.94;2583581;55;20104;-75
2020/12/04 00:07:59;;;;;;;16.85;8.88;;;;;;;-2.45;89.24;102340.03;2582438;55;20132;-74
2020/12/04 00:10:26;;;;;;;13.62;6.65;;;;;;;-2.44;88.82;102328.69;2583986;55;20117;-72
2020/12/04 00:12:54;;;;;;;14.77;9.10;;;;;;;-2.45;88.72;102332.19;2584065;55;20507;-75
2020/12/04 00:15:21;;;;;;;14.82;7.55;;;;;;;-2.45;89.13;102337.41;2584083;55;20113;-75
2020/12/04 00:17:49;;;;;;;16.83;8.43;;;;;;;-2.49;89.15;102335.66;2583994;55;20094;-72
2020/12/04 00:20:17;;;;;;;12.15;7.40;;;;;;;-2.40;88.68;102340.94;2583953;55;20131;-75
2020/12/04 00:22:44;;;;;;;14.10;7.75;;;;;;;-2.44;88.71;102333.06;2584283;55;20120;-75
2020/12/04 00:25:11;;;;;;;16.17;8.50;;;;;;;-2.48;89.26;102332.16;2583907;55;20131;-72
2020/12/04 00:27:38;;;;;;;13.52;7.55;;;;;;;-2.40;88.38;102340.94;2584010;55;20127;-72
2020/12/04 00:30:06;;;;;;;14.30;8.80;;;;;;;-2.42;89.04;102332.19;2583993;55;20120;-74
2020/12/04 00:32:33;;;;;;;15.43;7.43;;;;;;;-2.49;88.71;102330.44;2583602;55;20135;-75
2020/12/04 00:35:01;;;;;;;15.70;8.13;;;;;;;-2.50;89.13;102335.63;2583878;55;20124;-72
2020/12/04 00:37:29;;;;;;;16.90;8.40;;;;;;;-2.53;88.72;102342.59;2583780;55;20121;-73
2020/12/04 00:39:56;;;;;;;15.20;6.47;;;;;;;-2.47;88.99;102331.31;2583913;55;20125;-75
2020/12/04 00:42:23;;;;;;;17.05;8.57;;;;;;;-2.59;89.24;102318.16;2583993;55;20123;-75
2020/12/04 00:44:51;;;;;;;17.30;8.32;;;;;;;-2.54;89.31;102326.91;2583728;55;20533;-72
2020/12/04 00:47:19;;;;;;;18.12;8.90;;;;;;;-2.46;88.93;102334.78;2583825;55;20126;-73
2020/12/04 00:49:46;;;;;;;13.27;8.35;;;;;;;-2.50;89.12;102333.91;2578784;55;20110;-72
2020/12/04 00:52:14;;;;;;;8.35;4.95;;;;;;;-2.44;88.60;102333.91;2583906;55;20147;-72
2020/12/04 00:54:41;;;;;;;13.80;7.75;;;;;;;-2.47;88.65;102339.16;2584079;55;20121;-72
2020/12/04 00:57:10;;;;;;;10.57;7.40;;;;;;;-2.44;89.27;102346.13;2583855;55;20124;-75
2020/12/04 00:59:38;;;;;;;17.35;8.88;;;;;;;-2.54;89.19;102337.34;2583920;55;20128;-73
2020/12/04 01:02:07;;;;;;;14.02;9.02;;;;;;;-2.55;89.24;102336.50;2584024;55;20121;-72
2020/12/04 01:04:34;;;;;;;21.08;10.10;;;;;;;-2.50;89.28;102343.47;2583834;55;20125;-75
2020/12/04 01:07:04;;;;;;;16.83;8.85;;;;;;;-2.48;89.01;102336.50;2583794;55;20571;-73
2020/12/04 01:09:33;;;;;;;18.37;8.73;;;;;;;-2.60;89.22;102317.28;2583818;55;20568;-72
2020/12/04 01:12:00;;;;;;;18.10;10.25;;;;;;;-2.48;89.72;102340.00;2583819;55;20647;-75
2020/12/04 01:14:28;;;;;;;13.82;6.95;;;;;;;-2.46;89.02;102346.13;2578727;55;20117;-72
2020/12/04 01:16:56;;;;;;;21.62;9.98;;;;;;;-2.49;89.71;102350.44;2583676;55;20548;-73
2020/12/04 01:19:23;;;;;;;15.65;8.70;;;;;;;-2.54;89.61;102339.97;2583884;55;20173;-74
2020/12/04 01:21:51;;;;;;;17.27;9.25;;;;;;;-2.48;90.04;102353.09;2583822;55;20151;-75
2020/12/04 01:24:18;;;;;;;19.00;9.55;;;;;;;-2.56;89.85;102350.41;2583877;55;20130;-75
2020/12/04 01:26:47;;;;;;;13.02;7.32;;;;;;;-2.43;89.92;102346.13;2583749;55;20117;-72
2020/12/04 01:29:14;;;;;;;14.23;6.80;;;;;;;-2.30;88.55;102341.84;2584168;55;20135;-75
2020/12/04 01:31:46;;;;;;;13.25;6.87;;;;;;;-2.43;89.01;102340.91;2583722;55;20113;-75
2020/12/04 01:34:13;;;;;;;15.63;8.25;;;;;;;-2.43;89.44;102340.91;2583805;55;20116;-75
2020/12/04 01:36:40;;;;;;;16.73;9.95;;;;;;;-2.49;89.62;102330.44;2583790;55;20128;-75
2020/12/04 01:39:08;;;;;;;16.37;7.95;;;;;;;-2.46;89.74;102338.28;2583835;55;20117;-72
2020/12/04 01:41:35;;;;;;;19.62;10.48;;;;;;;-2.56;89.71;102334.72;2583728;55;20121;-75
2020/12/04 01:44:04;;;;;;;16.45;10.05;;;;;;;-2.51;90.11;102332.13;2584117;55;20113;-73
2020/12/04 01:46:33;;;;;;;17.62;10.68;;;;;;;-2.48;89.94;102320.81;2583658;55;20101;-75
2020/12/04 01:49:00;;;;;;;21.17;9.43;;;;;;;-2.50;90.45;102322.56;2583673;55;20117;-75
2020/12/04 01:51:29;;;;;;;14.23;7.82;;;;;;;-2.47;90.06;102328.69;2583382;55;20133;-75
2020/12/04 01:53:57;;;;;;;17.95;9.40;;;;;;;-2.53;90.37;102321.69;2583704;55;20133;-73
2020/12/04 01:56:25;;;;;;;18.55;10.40;;;;;;;-2.58;90.54;102319.91;2583600;55;20113;-75
2020/12/04 01:58:52;;;;;;;17.08;9.68;;;;;;;-2.60;90.96;102319.03;2583578;55;20131;-75
2020/12/04 02:01:21;;;;;;;17.83;9.52;;;;;;;-2.56;90.12;102315.56;2583597;55;20516;-72
2020/12/04 02:03:49;;;;;;;13.23;5.90;;;;;;;-2.40;89.78;102308.66;2583702;55;20139;-75
2020/12/04 02:06:24;;;;;;;16.95;10.00;;;;;;;-2.54;90.17;102306.00;2583582;55;20607;-75
2020/12/04 02:08:56;;;;;;;19.70;9.88;;;;;;;-2.57;90.70;102311.22;2583797;55;20649;-75
2020/12/04 02:11:26;;;;;;;15.82;9.52;;;;;;;-2.59;90.69;102305.09;2583599;55;20109;-73
2020/12/04 02:13:56;;;;;;;17.70;8.30;;;;;;;-2.55;90.12;102312.09;2583921;55;20105;-75
2020/12/04 02:16:24;;;;;;;18.17;9.57;;;;;;;-2.49;90.12;102301.66;2583635;55;20112;-75
2020/12/04 02:18:52;;;;;;;18.35;9.70;;;;;;;-2.52;90.15;102296.41;2583617;55;20109;-75
2020/12/04 02:21:21;;;;;;;18.35;8.93;;;;;;;-2.51;90.32;102300.75;2583573;55;20131;-75
2020/12/04 02:23:51;;;;;;;17.37;9.15;;;;;;;-2.56;90.46;102294.66;2583629;55;20104;-75
2020/12/04 02:26:20;;;;;;;10.25;6.07;;;;;;;-2.47;89.78;102283.34;2583612;55;20668;-75
2020/12/04 02:28:48;;;;;;;17.45;9.38;;;;;;;-2.63;89.83;102274.56;2583630;55;20125;-72
2020/12/04 02:31:16;;;;;;;16.17;7.15;;;;;;;-2.56;90.37;102276.34;2583579;55;20113;-75
2020/12/04 02:33:44;;;;;;;15.65;8.10;;;;;;;-2.66;90.58;102286.78;2583588;55;20126;-72
2020/12/04 02:36:12;;;;;;;19.45;9.30;;;;;;;-2.72;90.64;102296.31;2583405;55;20127;-73
2020/12/04 02:38:41;;;;;;;16.90;9.70;;;;;;;-2.70;91.12;102305.91;2583486;55;20109;-74
2020/12/04 02:41:08;;;;;;;18.70;10.48;;;;;;;-2.64;90.46;102299.84;2583605;55;20607;-73
2020/12/04 02:43:36;;;;;;;12.55;6.35;;;;;;;-2.65;90.35;102298.09;2583524;55;20117;-75
2020/12/04 02:46:04;;;;;;;17.20;8.05;;;;;;;-2.70;90.57;102305.91;2583517;55;20119;-72
2020/12/04 02:48:31;;;;;;;15.45;7.90;;;;;;;-2.61;90.24;102292.00;2583554;55;20500;-72
2020/12/04 02:50:58;;;;;;;14.25;7.00;;;;;;;-2.60;90.32;102300.75;2583461;55;20123;-72
2020/12/04 02:53:26;;;;;;;14.05;7.78;;;;;;;-2.70;90.78;102311.16;2583636;55;20117;-75
2020/12/04 02:55:54;;;;;;;14.70;7.47;;;;;;;-2.68;90.41;102301.56;2583512;55;20397;-75
2020/12/04 02:58:21;;;;;;;10.63;6.55;;;;;;;-2.66;90.80;102312.91;2583707;55;20515;-73
2020/12/04 03:00:49;;;;;;;14.73;8.27;;;;;;;-2.76;91.54;102311.09;2583420;55;20499;-72
2020/12/04 03:03:16;;;;;;;13.55;7.60;;;;;;;-2.74;91.45;102324.19;2584057;55;20156;-73
2020/12/04 03:05:43;;;;;;;14.13;7.80;;;;;;;-2.73;91.00;102318.94;2584452;55;20115;-75
2020/12/04 03:08:10;;;;;;;15.30;8.90;;;;;;;-2.70;90.77;102316.38;2584186;55;20645;-75
2020/12/04 03:10:38;;;;;;;14.60;8.65;;;;;;;-2.71;91.06;102311.97;2584311;55;20117;-75
2020/12/04 03:13:06;;;;;;;17.42;7.85;;;;;;;-2.66;90.66;102305.06;2584165;55;20121;-75
2020/12/04 03:15:33;;;;;;;14.95;8.10;;;;;;;-2.62;91.37;102310.28;2584198;55;20121;-72
2020/12/04 03:18:00;;;;;;;12.90;6.93;;;;;;;-2.68;91.11;102303.28;2584528;55;20170;-75
2020/12/04 03:20:28;;;;;;;17.95;9.10;;;;;;;-2.71;91.61;102298.91;2584287;55;20101;-72
2020/12/04 03:22:55;;;;;;;12.63;6.82;;;;;;;-2.69;91.13;102307.66;2584215;55;20499;-75
2020/12/04 03:25:23;;;;;;;17.45;8.30;;;;;;;-2.66;90.58;102310.28;2584169;55;20105;-75
2020/12/04 03:27:50;;;;;;;15.18;8.25;;;;;;;-2.68;91.40;102313.75;2584179;55;20135;-73
2020/12/04 03:30:18;;;;;;;17.75;8.02;;;;;;;-2.69;91.32;102297.22;2584168;55;20113;-75
2020/12/04 03:32:45;;;;;;;15.80;8.40;;;;;;;-2.62;91.44;102302.44;2584116;55;20109;-72
2020/12/04 03:35:12;;;;;;;14.63;6.37;;;;;;;-2.68;91.22;102293.72;2584045;55;20108;-75
2020/12/04 03:37:40;;;;;;;17.73;10.35;;;;;;;-2.70;91.66;102303.31;2584106;55;20643;-75
2020/12/04 03:40:07;;;;;;;16.90;8.13;;;;;;;-2.65;91.36;102292.88;2579106;55;20117;-75
2020/12/04 03:42:35;;;;;;;15.27;7.87;;;;;;;-2.69;91.16;102286.75;2584141;55;20117;-75
2020/12/04 03:45:02;;;;;;;18.85;9.27;;;;;;;-2.71;91.77;102292.84;2584012;55;20105;-72
2020/12/04 03:47:31;;;;;;;22.17;8.85;;;;;;;-2.69;91.28;102289.38;2584404;55;20634;-72
2020/12/04 03:49:59;;;;;;;16.15;8.48;;;;;;;-2.61;91.51;102296.34;2584050;55;20131;-75
2020/12/04 03:52:27;;;;;;;16.12;7.85;;;;;;;-2.70;91.58;102291.97;2584098;55;20139;-72
2020/12/04 03:54:54;;;;;;;16.42;9.35;;;;;;;-2.72;92.11;102289.34;2584216;55;20134;-75
2020/12/04 03:57:21;;;;;;;14.10;7.80;;;;;;;-2.71;91.20;102298.91;2583880;55;20139;-72
2020/12/04 03:59:49;;;;;;;17.62;9.30;;;;;;;-2.71;91.60;102304.16;2584036;55;20117;-72
2020/12/04 04:02:16;;;;;;;14.45;8.20;;;;;;;-2.72;92.08;102297.16;2584073;55;20117;-73
2020/12/04 04:04:45;;;;;;;17.58;9.63;;;;;;;-2.68;92.00;102296.34;2584335;55;20112;-73
2020/12/04 04:07:12;;;;;;;18.73;8.43;;;;;;;-2.69;91.82;102297.22;2584071;55;20127;-75
2020/12/04 04:09:39;;;;;;;21.20;8.30;;;;;;;-2.68;91.40;102303.28;2584186;55;20109;-72
2020/12/04 04:12:07;;;;;;;25.70;10.40;;;;;;;-2.69;91.78;102305.06;2584044;55;20635;-75
2020/12/04 04:14:34;;;;;;;20.92;8.98;;;;;;;-2.71;91.68;102308.50;2583900;55;20119;-72
2020/12/04 04:17:01;;;;;;;30.42;9.30;;;;;;;-2.73;92.12;102311.09;2584039;55;20520;-75
2020/12/04 04:19:28;;;;;;;24.23;11.27;;;;;;;-2.68;92.04;102309.41;2584013;55;20113;-72
2020/12/04 04:21:57;;;;;;;16.73;8.32;;;;;;;-2.67;92.12;102303.31;2583971;55;20117;-75
2020/12/04 04:24:24;;;;;;;17.08;7.90;;;;;;;-2.65;92.07;102298.09;2578971;55;20155;-73
2020/12/04 04:26:51;;;;;;;9.38;5.28;;;;;;;-2.49;91.38;102293.84;2583895;55;20118;-75
2020/12/04 04:29:19;;;;;;;15.05;7.93;;;;;;;-2.62;91.72;102299.84;2584006;55;20149;-75
2020/12/04 04:31:50;;;;;;;16.85;9.38;;;;;;;-2.62;91.74;102302.44;2583898;55;20145;-72
2020/12/04 04:34:18;;;;;;;20.27;7.78;;;;;;;-2.64;91.88;102294.63;2584474;55;20105;-73
2020/12/04 04:36:45;;;;;;;23.12;12.57;;;;;;;-2.69;92.03;102294.59;2583952;55;20122;-76
2020/12/04 04:39:13;;;;;;;19.85;9.10;;;;;;;-2.70;92.06;102282.41;2584042;55;20108;-75
2020/12/04 04:41:41;;;;;;;24.27;9.57;;;;;;;-2.64;92.21;102288.50;2584080;55;20147;-75
2020/12/04 04:44:11;;;;;;;16.23;8.90;;;;;;;-2.70;91.93;102284.13;2583904;55;20112;-72
2020/12/04 04:46:44;;;;;;;16.42;8.77;;;;;;;-2.67;92.00;102289.34;2584078;55;20179;-72
2020/12/04 04:49:26;;;;;;;14.07;7.20;;;;;;;-2.64;92.14;102293.75;2584146;55;20651;-74
2020/12/04 04:51:54;;;;;;;13.88;7.60;;;;;;;-2.71;92.22;102293.69;2583903;55;20116;-75
2020/12/04 04:54:24;;;;;;;16.12;8.38;;;;;;;-2.72;92.80;102291.09;2583909;55;20127;-75
2020/12/04 04:56:53;;;;;;;15.82;7.45;;;;;;;-2.65;92.24;102285.03;2583692;55;20130;-73
2020/12/04 04:59:21;;;;;;;21.08;10.98;;;;;;;-2.78;93.05;102271.03;2583484;55;20101;-73
2020/12/04 05:01:50;;;;;;;29.33;11.23;;;;;;;-2.70;92.82;102286.75;2583736;55;20671;-74
2020/12/04 05:04:17;;;;;;;22.48;9.23;;;;;;;-2.78;93.65;102291.94;2583969;55;20106;-72
2020/12/04 05:06:45;;;;;;;19.55;11.48;;;;;;;-2.79;93.74;102287.56;2583783;55;20109;-75
2020/12/04 05:09:17;;;;;;;27.85;11.23;;;;;;;-2.71;93.11;102288.47;2583866;55;20121;-75
2020/12/04 05:12:02;;;;;;;;;;;;;;;-2.47;92.08;102297.31;2584181;55;20397;-72
2020/12/04 05:14:30;;;;;;;29.55;13.77;;;;;;;-2.64;92.76;102304.19;2583627;55;19989;-72
2020/12/04 05:16:58;;;;;;;22.70;10.68;;;;;;;-2.72;93.25;102307.63;2583394;55;20128;-72
2020/12/04 05:19:32;;;;;;;20.50;10.38;;;;;;;-2.69;93.25;102307.66;2573453;55;20108;-75
2020/12/04 05:22:13;;;;;;;23.52;10.82;;;;;;;-2.69;92.99;102293.72;2573500;55;20485;-75
2020/12/04 05:24:42;;;;;;;25.15;11.25;;;;;;;-2.63;93.46;102301.59;2582760;55;20115;-71
2020/12/04 05:27:27;;;;;;;18.17;10.07;;;;;;;-2.60;93.36;102300.75;2583514;55;20135;-74
2020/12/04 05:29:56;;;;;;;21.12;11.30;;;;;;;-2.65;92.80;102303.34;2583615;55;20123;-72
2020/12/04 05:32:24;;;;;;;20.17;10.02;;;;;;;-2.71;93.87;102306.75;2583543;55;20112;-72
2020/12/04 05:35:04;;;;;;;20.73;11.18;;;;;;;-2.70;93.58;102305.91;2583476;55;20109;-74
2020/12/04 05:37:31;;;;;;;21.25;10.88;;;;;;;-2.64;93.22;102304.19;2583702;55;20123;-72
2020/12/04 05:39:59;;;;;;;22.27;10.05;;;;;;;-2.61;92.91;102302.47;2583249;55;20507;-73
2020/12/04 05:42:33;;;;;;;21.60;10.18;;;;;;;-2.55;93.47;102304.25;2583675;55;20119;-74
2020/12/04 05:45:04;;;;;;;15.32;8.43;;;;;;;-2.56;92.63;102313.81;2583372;55;20130;-74
2020/12/04 05:47:39;;;;;;;23.62;12.10;;;;;;;-2.60;93.01;102311.19;2583654;55;20120;-74
2020/12/04 05:50:10;;;;;;;20.58;10.60;;;;;;;-2.69;92.83;102306.78;2583686;55;20103;-72
2020/12/04 05:52:38;;;;;;;16.50;8.50;;;;;;;-2.62;93.04;102310.28;2583559;55;20109;-74
2020/12/04 05:55:07;;;;;;;19.90;10.52;;;;;;;-2.66;93.31;102312.91;2583373;55;20097;-72
2020/12/04 05:57:43;;;;;;;27.42;12.00;;;;;;;-2.66;93.34;102317.25;2583211;55;20630;-72
2020/12/04 06:00:13;;;;;;;20.20;10.63;;;;;;;-2.68;93.68;102309.41;2582088;55;20763;-74
2020/12/04 06:02:41;;;;;;;23.73;11.88;;;;;;;-2.68;93.50;102312.03;2582951;55;20149;-74
2020/12/04 06:05:13;;;;;;;14.27;8.55;;;;;;;-2.61;92.88;102304.19;2581696;55;20116;-74
2020/12/04 06:07:41;;;;;;;20.58;12.02;;;;;;;-2.64;93.15;102319.88;2582546;55;20128;-76
2020/12/04 06:10:10;;;;;;;19.85;11.18;;;;;;;-2.67;93.28;102311.16;2583311;55;20117;-76
2020/12/04 06:12:37;;;;;;;25.62;12.93;;;;;;;-2.71;93.70;102314.59;2583939;55;20125;-73
2020/12/04 06:15:28;;;;;;;21.40;10.15;;;;;;;-2.67;93.81;102305.94;2583074;55;20156;-75
2020/12/04 06:18:04;;;;;;;22.85;10.35;;;;;;;-2.69;93.38;102318.13;2583600;55;20115;-74
2020/12/04 06:20:43;;;;;;;24.02;11.45;;;;;;;-2.72;93.50;102320.69;2583630;55;20223;-74
2020/12/04 06:23:14;;;;;;;20.37;8.77;;;;;;;-2.81;93.91;102307.56;2583486;55;20741;-74
2020/12/04 06:26:04;;;;;;;21.30;12.60;;;;;;;-2.68;93.31;102319.88;2583164;55;20101;-72
2020/12/04 06:28:35;;;;;;;19.27;9.70;;;;;;;-2.64;93.33;102325.09;2582131;55;20112;-75
2020/12/04 06:31:09;;;;;;;31.98;12.40;;;;;;;-2.69;92.81;102315.50;2583415;55;20125;-75
2020/12/04 06:33:47;;;;;;;25.20;12.37;;;;;;;-2.63;92.81;102316.38;2583230;55;20204;-76
2020/12/04 06:36:36;;;;;;;25.80;12.00;;;;;;;-2.63;92.82;102321.63;2583061;55;20120;-76
2020/12/04 06:39:05;;;;;;;22.42;11.25;;;;;;;-2.67;92.96;102328.56;2569206;55;20151;-77
2020/12/04 06:41:34;;;;;;;35.90;13.25;;;;;;;-2.63;92.62;102326.84;2578023;55;20121;-77
2020/12/04 06:44:04;;;;;;;23.00;11.25;;;;;;;-2.67;93.36;102325.94;2579319;55;20110;-76
2020/12/04 06:46:37;;;;;;;22.05;9.82;;;;;;;-2.60;92.97;102313.81;2570867;55;20127;-76
2020/12/04 06:49:12;;;;;;;22.05;11.52;;;;;;;-2.68;92.49;102337.28;2580051;55;20130;-76
2020/12/04 06:51:41;;;;;;;19.83;10.40;;;;;;;-2.74;93.09;102327.66;2579212;55;20116;-76
2020/12/04 06:54:08;;;;;;;22.58;11.77;;;;;;;-2.75;92.82;102333.75;2579556;55;20523;-76
2020/12/04 06:56:35;;;;;;;21.58;12.23;;;;;;;-2.73;93.21;102342.47;2579792;55;20171;-76
2020/12/04 06:59:03;;;;;;;28.17;11.80;;;;;;;-2.76;93.42;102347.69;2573124;55;20155;-76
2020/12/04 07:01:30;;;;;;;22.77;12.35;;;;;;;-2.71;92.72;102345.94;2578264;55;20145;-77
2020/12/04 07:03:58;;;;;;;26.98;12.88;;;;;;;-2.73;92.53;102350.31;2579937;55;20567;-77
2020/12/04 07:06:26;;;;;;;24.65;11.75;;;;;;;-2.72;92.71;102332.91;2580271;55;20117;-77
2020/12/04 07:08:55;;;;;;;27.65;11.38;;;;;;;-2.75;93.00;102343.34;2579139;55;20136;-76
2020/12/04 07:11:24;;;;;;;11.82;6.82;;;;;;;-2.63;92.59;102332.97;2580820;55;20143;-76
2020/12/04 07:13:52;;;;;;;19.62;10.38;;;;;;;-2.73;92.39;102334.63;2580549;55;20113;-76
2020/12/04 07:16:19;;;;;;;26.75;12.88;;;;;;;-2.72;92.95;102338.13;2580803;55;20116;-77
2020/12/04 07:18:50;;;;;;;26.12;12.02;;;;;;;-2.73;93.05;102342.47;2580758;55;20124;-77
2020/12/04 07:21:18;;;;;;;20.35;7.78;;;;;;;-2.70;93.21;102336.38;2580618;55;20117;-77
2020/12/04 07:23:46;;;;;;;23.17;11.38;;;;;;;-2.74;92.83;102334.63;2580273;55;20122;-79
2020/12/04 07:26:16;;;;;;;20.17;10.98;;;;;;;-2.74;92.45;102345.94;2580282;55;20510;-77
2020/12/04 07:28:45;;;;;;;20.93;10.80;;;;;;;-2.74;93.06;102338.09;2580719;55;20117;-78
2020/12/04 07:31:17;;;;;;;26.55;10.00;;;;;;;-2.80;92.70;102340.69;2579122;55;20554;-78
2020/12/04 07:33:59;;;;;;;24.83;11.30;;;;;;;-2.73;93.35;102352.06;2580354;55;20174;-79
2020/12/04 07:36:29;;;;;;;24.15;12.95;;;;;;;-2.74;92.94;102356.41;2580419;55;21023;-79
2020/12/04 07:38:58;;;;;;;17.27;9.93;;;;;;;-2.70;92.56;102358.19;2580445;55;21174;-79
2020/12/04 07:41:36;;;;;;;22.10;11.25;;;;;;;-2.67;91.98;102358.19;2573223;55;20118;-78
2020/12/04 07:44:06;;;;;;;21.33;11.57;;;;;;;-2.71;92.30;102351.19;2580672;55;20137;-78
2020/12/04 07:46:34;;;;;;;27.00;14.35;;;;;;;-2.73;92.16;102352.91;2580296;55;20113;-73
2020/12/04 07:49:06;;;;;;;29.15;15.50;;;;;;;-2.70;91.96;102352.06;2582595;55;20132;-79
2020/12/04 07:51:37;;;;;;;38.15;16.17;;;;;;;-2.69;92.26;102354.72;2582775;55;20109;-79
2020/12/04 07:54:06;;;;;;;25.67;13.52;;;;;;;-2.71;92.58;102359.03;2583717;55;20125;-73
2020/12/04 07:56:37;;;;;;;18.37;9.30;;;;;;;-2.56;91.80;102354.78;2582335;55;20113;-79
2020/12/04 07:59:06;;;;;;;27.20;13.62;;;;;;;-2.62;91.40;102354.72;2576500;55;20516;-73
2020/12/04 08:01:41;;;;;;;25.05;12.52;;;;;;;-2.60;91.42;102363.47;2583761;55;20120;-72
2020/12/04 08:04:10;;;;;;;21.73;10.35;;;;;;;-2.63;91.09;102363.44;2582724;55;20146;-73
2020/12/04 08:06:38;;;;;;;24.83;12.02;;;;;;;-2.64;91.07;102372.13;2583998;55;20510;-76
2020/12/04 08:09:12;;;;;;;19.73;8.98;;;;;;;-2.49;90.36;102374.88;2583676;55;20148;-77
2020/12/04 08:11:48;;;;;;;17.60;9.20;;;;;;;-2.54;91.00;102379.19;2583942;55;20109;-76
2020/12/04 08:14:23;;;;;;;23.12;11.80;;;;;;;-2.61;90.49;102388.72;2582912;55;20127;-76
2020/12/04 08:16:54;;;;;;;25.75;10.63;;;;;;;-2.52;89.57;102378.31;2582577;55;20109;-73
2020/12/04 08:19:27;;;;;;;23.67;10.57;;;;;;;-2.46;89.72;102377.50;2583823;55;20125;-73
2020/12/04 08:22:04;;;;;;;24.23;11.60;;;;;;;-2.47;90.38;102382.69;2582991;55;20126;-77
2020/12/04 08:24:33;;;;;;;25.50;11.85;;;;;;;-2.55;90.53;102380.94;2584053;55;20534;-72
2020/12/04 08:27:09;;;;;;;22.40;11.48;;;;;;;-2.55;89.88;102370.47;2583668;55;20152;-76
2020/12/04 08:29:38;;;;;;;20.45;10.25;;;;;;;-2.49;90.43;102372.25;2583903;55;20173;-72
2020/12/04 08:32:07;;;;;;;22.55;10.10;;;;;;;-2.40;89.43;102367.06;2583650;55;20128;-72
2020/12/04 08:34:35;;;;;;;22.73;11.00;;;;;;;-2.43;88.95;102368.78;2583687;55;20117;-73
2020/12/04 08:37:05;;;;;;;21.85;11.05;;;;;;;-2.39;88.53;102374.06;2582286;55;20127;-73
2020/12/04 08:39:43;;;;;;;16.98;8.93;;;;;;;-2.36;88.95;102367.94;2583918;55;20135;-72
2020/12/04 08:42:18;;;;;;;23.73;11.07;;;;;;;-2.34;88.36;102365.34;2583144;55;20141;-77
2020/12/04 08:44:59;;;;;;;22.48;11.60;;;;;;;-2.34;88.66;102366.25;2582658;55;20124;-77
2020/12/04 08:47:28;;;;;;;23.90;12.98;;;;;;;-2.38;88.78;102361.84;2583807;55;20149;-76
2020/12/04 08:49:56;;;;;;;17.65;9.75;;;;;;;-2.31;88.64;102357.50;2583837;55;20130;-76
2020/12/04 08:52:39;;;;;;;14.87;7.95;;;;;;;-2.11;87.91;102363.72;2584133;55;20113;-73
2020/12/04 08:55:11;;;;;;;13.32;7.82;;;;;;;-2.19;86.81;102357.59;2583779;55;20124;-73
2020/12/04 08:57:39;;;;;;;24.12;12.00;;;;;;;-2.31;87.72;102341.81;2582968;55;20113;-73
2020/12/04 09:00:11;;;;;;;20.30;10.45;;;;;;;-2.24;87.50;102361.91;2582762;55;20109;-78
2020/12/04 09:02:39;;;;;;;16.10;8.18;;;;;;;-2.16;86.97;102354.97;2582746;55;20113;-72
2020/12/04 09:05:08;;;;;;;19.50;9.95;;;;;;;-2.27;86.91;102372.37;2582685;55;20666;-73
2020/12/04 09:07:38;;;;;;;17.45;10.50;;;;;;;-2.29;87.14;102367.12;2582804;55;20235;-78
2020/12/04 09:10:07;;;;;;;26.80;10.93;;;;;;;-2.21;87.85;102381.97;2582603;55;20124;-78
2020/12/04 09:12:34;;;;;;;17.00;8.80;;;;;;;-2.27;86.56;102382.81;2583500;55;20135;-79
2020/12/04 09:15:03;;;;;;;17.80;10.18;;;;;;;-2.17;85.99;102383.72;2583764;55;20135;-79
2020/12/04 09:17:30;;;;;;;14.85;7.40;;;;;;;-2.20;86.05;102363.69;2583927;55;20105;-78
2020/12/04 09:19:58;;;;;;;10.43;5.65;;;;;;;-2.01;85.85;102368.97;2583940;55;20117;-73
2020/12/04 09:22:25;;;;;;;13.73;7.12;;;;;;;-2.02;85.46;102362.00;2584205;55;20121;-78
2020/12/04 09:24:53;;;;;;;20.25;9.95;;;;;;;-2.13;85.64;102354.12;2584010;55;20491;-79
2020/12/04 09:27:21;;;;;;;19.40;9.85;;;;;;;-2.13;85.92;102356.75;2584098;55;20575;-73
2020/12/04 09:29:49;;;;;;;13.23;8.10;;;;;;;-2.08;85.61;102362.84;2583884;55;20124;-79
2020/12/04 09:32:18;;;;;;;28.60;8.80;;;;;;;-2.07;85.89;102364.59;2583931;55;20173;-77
2020/12/04 09:34:47;;;;;;;15.93;8.82;;;;;;;-2.10;86.31;102355.03;2583795;55;20123;-78
2020/12/04 09:37:19;;;;;;;17.87;8.45;;;;;;;-2.10;86.28;102365.47;2583896;55;20493;-79
2020/12/04 09:39:48;;;;;;;14.32;7.55;;;;;;;-1.98;85.55;102359.41;2583897;55;20639;-73
2020/12/04 09:42:18;;;;;;;20.45;8.35;;;;;;;-1.98;85.19;102369.00;2583855;55;20121;-78
2020/12/04 09:44:46;;;;;;;16.42;7.97;;;;;;;-1.94;85.16;102367.28;2584060;55;20112;-73
2020/12/04 09:47:14;;;;;;;14.63;8.45;;;;;;;-2.02;84.95;102364.63;2583834;55;20113;-73
2020/12/04 09:49:42;;;;;;;13.62;7.45;;;;;;;-2.01;85.05;102368.97;2583878;55;20128;-79
2020/12/04 09:52:11;;;;;;;15.93;8.15;;;;;;;-2.11;85.50;102358.47;2578852;55;20143;-78
2020/12/04 09:54:40;;;;;;;13.95;7.80;;;;;;;-2.02;85.44;102356.75;2583801;55;20109;-73
2020/12/04 09:57:10;;;;;;;13.45;6.93;;;;;;;-2.09;85.89;102358.50;2583691;55;20125;-73
2020/12/04 09:59:39;;;;;;;13.80;8.40;;;;;;;-2.05;85.89;102362.00;2583733;55;20653;-79
2020/12/04 10:02:08;;;;;;;14.63;8.07;;;;;;;-2.03;84.98;102373.34;2583835;55;20142;-77
2020/12/04 10:04:37;;;;;;;16.85;7.60;;;;;;;-2.04;86.21;102361.13;2583924;55;20101;-79
2020/12/04 10:07:04;;;;;;;19.12;8.63;;;;;;;-2.05;86.10;102367.22;2583866;55;20409;-78
2020/12/04 10:09:31;;;;;;;15.95;8.15;;;;;;;-2.10;86.07;102365.47;2583721;55;20120;-73
2020/12/04 10:11:59;;;;;;;15.85;8.40;;;;;;;-2.12;85.92;102356.72;2583444;55;20170;-78
2020/12/04 10:14:26;;;;;;;15.70;8.65;;;;;;;-2.14;86.15;102358.47;2583824;55;20109;-73
2020/12/04 10:16:55;;;;;;;18.45;8.25;;;;;;;-2.13;86.54;102359.34;2583710;55;20116;-77
2020/12/04 10:19:23;;;;;;;14.82;7.80;;;;;;;-2.12;87.15;102353.25;2583914;55;20544;-73
2020/12/04 10:21:50;;;;;;;16.73;8.30;;;;;;;-2.11;86.74;102350.62;2583642;55;20109;-79
2020/12/04 10:24:19;;;;;;;15.23;7.62;;;;;;;-2.05;85.95;102354.16;2578837;55;20617;-73
2020/12/04 10:26:49;;;;;;;16.42;7.95;;;;;;;-2.11;86.39;102345.41;2583642;55;20113;-74
2020/12/04 10:29:18;;;;;;;17.50;6.95;;;;;;;-2.07;86.40;102350.66;2583589;55;20105;-73
2020/12/04 10:31:46;;;;;;;19.98;8.48;;;;;;;-2.11;86.64;102348.00;2583626;55;20765;-78
2020/12/04 10:34:16;;;;;;;20.05;9.13;;;;;;;-2.08;86.54;102349.78;2583584;55;20131;-79
2020/12/04 10:36:43;;;;;;;13.60;7.85;;;;;;;-2.07;86.00;102333.22;2583643;55;20125;-74
2020/12/04 10:39:12;;;;;;;14.20;7.95;;;;;;;-2.11;86.34;102337.56;2583660;55;20109;-78
2020/12/04 10:41:42;;;;;;;15.95;7.20;;;;;;;-2.06;85.65;102328.84;2583616;55;20109;-73
2020/12/04 10:44:10;;;;;;;18.85;8.60;;;;;;;-2.07;86.69;102340.19;2583645;55;20124;-78
2020/12/04 10:46:40;;;;;;;16.37;8.15;;;;;;;-2.06;86.35;102344.56;2583638;55;20506;-73
2020/12/04 10:49:08;;;;;;;16.35;8.13;;;;;;;-2.14;86.65;102349.78;2583561;55;20112;-73
2020/12/04 10:51:36;;;;;;;14.00;7.55;;;;;;;-2.10;86.79;102349.78;2583631;55;20524;-73
2020/12/04 10:54:05;;;;;;;9.90;6.03;;;;;;;-1.98;86.44;102332.38;2583540;55;20124;-78
2020/12/04 10:56:33;;;;;;;12.93;7.22;;;;;;;-1.99;85.80;102341.09;2583649;55;20117;-78
2020/12/04 10:59:01;;;;;;;15.57;7.22;;;;;;;-1.97;85.92;102349.81;2583731;55;20106;-78
2020/12/04 11:01:33;;;;;;;10.63;5.87;;;;;;;-2.03;86.22;102334.97;2583714;55;20134;-73
2020/12/04 11:06:46;;;;;;;11.40;4.47;;;;;;;-1.96;86.10;102335.88;2583474;55;20226;-73
2020/12/04 11:09:14;;;;;;;12.10;6.50;;;;;;;-2.01;85.85;102328.00;2583563;55;20123;-73
2020/12/04 11:11:42;;;;;;;13.52;7.55;;;;;;;-2.16;87.13;102318.37;2583571;55;20649;-78
2020/12/04 11:14:09;;;;;;;15.10;8.52;;;;;;;-2.09;86.80;102340.19;2583571;55;20651;-78
2020/12/04 11:16:40;;;;;;;13.10;7.25;;;;;;;-2.00;86.81;102336.75;2583571;55;20108;-73
2020/12/04 11:19:07;;;;;;;15.43;7.57;;;;;;;-2.00;86.83;102328.91;2583602;55;20527;-78
2020/12/04 11:21:34;;;;;;;23.25;10.40;;;;;;;-2.02;87.06;102325.37;2583540;55;20472;-78
2020/12/04 11:24:03;;;;;;;16.58;9.43;;;;;;;-2.02;86.00;102325.37;2584163;55;20534;-79
2020/12/04 11:26:30;;;;;;;14.05;6.93;;;;;;;-1.99;86.49;102317.56;2584493;55;20522;-79